Time;durP1;ratioP1;P1;durP2;ratioP2;P2;SDS_P1;SDS_P2;PMS_P1;PMS_P2;Temp;Humidity;BMP_temperature;BMP_pressure;BME280_temperature;BME280_humidity;BME280_pressure;Samples;Min_cycle;Max_cycle;Signal;HPM_P1;HPM_P2
2024/01/15 00:01:22;;;;;;;35.40;11.73;;;;;;;-145.69;58.86;52422.59;5133320;27;20567;-78
2024/01/15 00:03:50;;;;;;;32.77;11.90;;;;;;;-145.69;58.96;52412.69;5133838;27;20200;-78
2024/01/15 00:06:16;;;;;;;37.20;12.53;;;;;;;-145.69;59.01;52452.31;5133777;28;20197;-76
2024/01/15 00:08:43;;;;;;;32.23;11.53;;;;;;;-145.69;59.36;52416.66;5133672;28;20539;-78
2024/01/15 00:11:09;;;;;;;29.93;11.20;;;;;;;-145.69;59.38;52398.84;5133335;27;20224;-79
2024/01/15 00:13:36;;;;;;;35.57;13.40;;;;;;;-145.69;59.75;52428.53;5133809;27;20197;-77
2024/01/15 00:16:02;;;;;;;31.80;12.07;;;;;;;-145.69;59.65;52369.13;5133285;27;20276;-78
2024/01/15 00:18:28;;;;;;;41.87;12.03;;;;;;;-145.69;59.61;52408.75;5133183;27;20291;-78
2024/01/15 00:20:57;;;;;;;35.13;11.77;;;;;;;-145.69;59.58;52436.47;5133084;27;20647;-78
2024/01/15 00:23:23;;;;;;;30.50;11.90;;;;;;;-145.69;59.88;52434.47;5133476;28;20201;-78
2024/01/15 00:25:52;;;;;;;34.80;12.97;;;;;;;-145.69;59.76;52400.81;5133256;27;20216;-79
2024/01/15 00:28:18;;;;;;;38.37;12.53;;;;;;;-145.69;59.53;52436.47;5133172;28;20690;-77
2024/01/15 00:30:45;;;;;;;38.93;13.13;;;;;;;-145.69;59.51;52442.41;5133385;27;20273;-77
2024/01/15 00:33:12;;;;;;;40.13;12.27;;;;;;;-145.69;59.01;52408.75;5133545;28;20245;-76
2024/01/15 00:35:41;;;;;;;39.77;12.00;;;;;;;-145.69;58.81;52440.44;5133381;28;20609;-76
2024/01/15 00:38:09;;;;;;;37.73;12.10;;;;;;;-145.69;58.56;52426.56;5133442;27;20201;-78
2024/01/15 00:40:36;;;;;;;26.27;10.53;;;;;;;-145.69;58.33;52379.03;5133121;27;20659;-77
2024/01/15 00:43:03;;;;;;;37.47;11.97;;;;;;;-145.69;58.16;52424.59;5133268;27;20243;-76
2024/01/15 00:45:32;;;;;;;33.20;11.13;;;;;;;-145.69;58.05;52436.47;5137417;27;20275;-78
2024/01/15 00:48:00;;;;;;;32.27;11.07;;;;;;;-145.69;57.80;52408.75;5133284;27;20703;-76
2024/01/15 00:50:27;;;;;;;37.40;12.50;;;;;;;-145.69;57.75;52408.75;5133170;27;20224;-76
2024/01/15 00:52:56;;;;;;;32.30;11.47;;;;;;;-145.69;57.69;52398.84;5132705;27;20207;-76
2024/01/15 00:55:28;;;;;;;28.17;11.00;;;;;;;-145.69;57.53;52402.78;5135901;27;20328;-76
2024/01/15 00:57:56;;;;;;;31.90;11.00;;;;;;;-145.69;57.59;52412.69;5136984;27;20196;-76
2024/01/15 01:00:22;;;;;;;28.40;11.10;;;;;;;-145.69;57.42;52416.66;5136897;27;20216;-76
2024/01/15 01:02:49;;;;;;;31.77;11.30;;;;;;;-145.69;57.25;52396.84;5136790;27;20551;-78
2024/01/15 01:05:17;;;;;;;29.30;10.33;;;;;;;-145.69;56.93;52404.78;5136053;27;20196;-78
2024/01/15 01:07:43;;;;;;;30.33;10.67;;;;;;;-145.69;57.04;52408.75;5136646;27;20203;-78
2024/01/15 01:10:10;;;;;;;28.33;10.77;;;;;;;-145.69;56.92;52398.84;5136422;27;20188;-78
2024/01/15 01:12:39;;;;;;;32.07;11.00;;;;;;;-145.69;57.00;52371.13;5136014;27;20284;-78
2024/01/15 01:15:11;;;;;;;38.63;11.07;;;;;;;-145.69;57.20;52396.84;5135976;27;20189;-77
2024/01/15 01:17:37;;;;;;;31.40;11.33;;;;;;;-145.69;56.97;52420.63;5136289;27;20216;-77
2024/01/15 01:20:09;;;;;;;31.83;10.17;;;;;;;-145.69;57.03;52424.59;5135918;27;20199;-78
2024/01/15 01:22:35;;;;;;;30.97;11.10;;;;;;;-145.69;57.28;52373.09;5136485;27;20201;-76
2024/01/15 01:25:02;;;;;;;30.60;10.57;;;;;;;-145.69;56.89;52440.44;5136508;27;20287;-77
2024/01/15 01:27:28;;;;;;;29.53;10.80;;;;;;;-145.69;56.96;52434.47;5136338;27;20208;-76
2024/01/15 01:29:56;;;;;;;31.77;10.03;;;;;;;-145.69;57.33;52412.69;5135830;27;20197;-79
2024/01/15 01:32:23;;;;;;;31.33;10.37;;;;;;;-145.69;57.15;52442.41;5136134;27;20227;-78
2024/01/15 01:34:52;;;;;;;27.13;9.83;;;;;;;-145.69;57.09;52398.84;5136482;27;20211;-76
2024/01/15 01:37:19;;;;;;;30.00;10.33;;;;;;;-145.69;56.97;52420.63;5136384;27;20204;-77
2024/01/15 01:39:45;;;;;;;27.90;9.73;;;;;;;-145.69;56.90;52396.84;5135827;27;20651;-77
2024/01/15 01:42:12;;;;;;;28.60;10.00;;;;;;;-145.69;56.72;52416.66;5136432;27;20550;-76
2024/01/15 01:44:39;;;;;;;31.60;10.63;;;;;;;-145.69;56.77;52428.53;5135640;27;20198;-77
2024/01/15 01:47:11;;;;;;;26.90;10.63;;;;;;;-145.69;56.59;52373.09;5135279;27;20232;-78
2024/01/15 01:49:39;;;;;;;29.67;9.67;;;;;;;-145.69;56.75;52392.91;5136196;27;20200;-80
2024/01/15 01:52:10;;;;;;;28.07;9.53;;;;;;;-145.69;56.40;52428.53;5135739;27;20224;-78
2024/01/15 01:54:38;;;;;;;24.33;9.23;;;;;;;-145.69;56.40;52418.63;5135742;27;20224;-78
2024/01/15 01:57:06;;;;;;;26.57;8.97;;;;;;;-145.69;56.17;52404.78;5134494;27;20201;-79
2024/01/15 01:59:35;;;;;;;25.97;9.70;;;;;;;-145.69;55.82;52416.66;5149334;27;20203;-76
2024/01/15 02:02:04;;;;;;;27.93;9.93;;;;;;;-145.69;56.40;52379.03;5149171;27;20208;-78
2024/01/15 02:04:33;;;;;;;25.13;8.40;;;;;;;-145.69;56.07;52408.75;5135531;27;20200;-76
2024/01/15 02:07:00;;;;;;;26.60;9.20;;;;;;;-145.69;55.87;52444.38;5121621;27;20197;-78
2024/01/15 02:09:27;;;;;;;31.43;9.67;;;;;;;-145.69;55.94;52404.78;5126163;27;20670;-78
2024/01/15 02:11:53;;;;;;;21.00;8.93;;;;;;;-145.69;56.41;52448.34;5135349;27;20228;-78
2024/01/15 02:14:20;;;;;;;24.27;9.47;;;;;;;-145.69;56.07;52432.50;5134630;27;20197;-79
2024/01/15 02:16:46;;;;;;;24.37;9.20;;;;;;;-145.69;55.97;52404.78;5138788;27;20655;-79
2024/01/15 02:19:16;;;;;;;24.30;8.70;;;;;;;-145.69;56.01;52386.97;5135457;27;20201;-78
2024/01/15 02:21:43;;;;;;;25.57;9.10;;;;;;;-145.69;56.19;52416.66;5134956;27;20209;-79
2024/01/15 02:24:12;;;;;;;27.10;8.77;;;;;;;-145.69;56.58;52444.38;5135182;27;20197;-78
2024/01/15 02:26:39;;;;;;;25.43;8.53;;;;;;;-145.69;56.53;52394.88;5135160;27;20263;-79
2024/01/15 02:29:07;;;;;;;25.13;8.70;;;;;;;-145.69;56.30;52402.78;5135423;27;20197;-78
2024/01/15 02:31:34;;;;;;;22.63;8.20;;;;;;;-145.69;56.35;52408.75;5134500;27;20221;-78
2024/01/15 02:34:00;;;;;;;24.80;9.13;;;;;;;-145.69;56.57;52442.41;5135012;27;20193;-78
2024/01/15 02:36:27;;;;;;;26.63;8.77;;;;;;;-145.69;56.25;52404.78;5135063;27;20196;-77
2024/01/15 02:38:53;;;;;;;23.50;8.47;;;;;;;-145.69;56.39;52444.38;5134745;27;20197;-78
2024/01/15 02:41:21;;;;;;;25.23;9.50;;;;;;;-145.69;56.57;52402.78;5134473;27;20670;-77
2024/01/15 02:43:47;;;;;;;23.23;9.30;;;;;;;-145.69;56.65;52408.75;5135084;27;20204;-78
2024/01/15 02:46:14;;;;;;;21.20;8.53;;;;;;;-145.69;56.48;52400.81;5134513;27;20220;-77
2024/01/15 02:48:41;;;;;;;26.60;9.53;;;;;;;-145.69;56.66;52375.06;5134402;27;20295;-78
2024/01/15 02:51:07;;;;;;;22.63;8.90;;;;;;;-145.69;56.92;52390.91;5134327;27;20217;-77
2024/01/15 02:53:33;;;;;;;22.23;7.83;;;;;;;-145.69;56.51;52420.63;5134417;27;20208;-78
2024/01/15 02:56:00;;;;;;;20.80;8.57;;;;;;;-145.69;56.62;52428.53;5133985;27;20246;-77
2024/01/15 02:58:28;;;;;;;25.57;7.53;;;;;;;-145.69;56.67;52420.63;5134621;27;20204;-79
2024/01/15 03:00:54;;;;;;;20.33;7.77;;;;;;;-145.69;56.80;52400.81;5134317;27;20716;-78
2024/01/15 03:03:21;;;;;;;23.50;8.10;;;;;;;-145.69;56.55;52396.84;5134062;27;20677;-78
2024/01/15 03:05:47;;;;;;;19.57;7.60;;;;;;;-145.69;56.47;52440.44;5134385;27;20651;-78
2024/01/15 03:08:14;;;;;;;23.30;8.07;;;;;;;-145.69;56.91;52416.66;5134094;27;20208;-78
2024/01/15 03:10:40;;;;;;;24.00;8.03;;;;;;;-145.69;56.55;52428.53;5134248;27;20189;-77
2024/01/15 03:13:06;;;;;;;22.23;8.27;;;;;;;-145.69;56.65;52394.88;5134356;27;20647;-77
2024/01/15 03:15:34;;;;;;;22.73;7.37;;;;;;;-145.69;56.48;52384.97;5134054;27;20658;-77
2024/01/15 03:18:01;;;;;;;22.37;8.10;;;;;;;-145.69;56.36;52408.75;5133869;27;20204;-77
2024/01/15 03:20:28;;;;;;;19.00;7.90;;;;;;;-145.69;56.60;52414.69;5134384;27;20204;-78
2024/01/15 03:22:54;;;;;;;21.60;8.03;;;;;;;-145.69;56.30;52379.03;5134133;27;20208;-78
2024/01/15 03:25:21;;;;;;;22.37;7.87;;;;;;;-145.69;56.40;52386.97;5134078;27;20212;-78
2024/01/15 03:27:51;;;;;;;21.40;7.73;;;;;;;-145.69;56.42;52416.66;5134024;27;20199;-79
2024/01/15 03:30:17;;;;;;;19.47;7.67;;;;;;;-145.69;56.41;52412.69;5134252;27;20192;-78
2024/01/15 03:32:47;;;;;;;24.83;8.60;;;;;;;-145.69;56.13;52428.53;5133960;27;20319;-78
2024/01/15 03:35:14;;;;;;;21.67;8.33;;;;;;;-145.69;56.40;52444.38;5133863;27;20204;-78
2024/01/15 03:37:40;;;;;;;24.20;8.67;;;;;;;-145.69;56.24;52412.69;5133697;27;20697;-78
2024/01/15 03:40:08;;;;;;;26.27;8.53;;;;;;;-145.69;56.44;52390.91;5135802;27;20199;-78
2024/01/15 03:42:35;;;;;;;18.93;7.83;;;;;;;-145.69;56.09;52412.69;5135833;27;20669;-78
2024/01/15 03:45:02;;;;;;;18.37;7.10;;;;;;;-145.69;56.35;52434.47;5133831;27;20196;-78
2024/01/15 03:47:29;;;;;;;20.03;7.77;;;;;;;-145.69;56.17;52394.88;5133590;27;20232;-78
2024/01/15 03:49:57;;;;;;;23.27;7.60;;;;;;;-145.69;56.19;52414.69;5133817;27;20204;-78
2024/01/15 03:52:23;;;;;;;22.10;7.70;;;;;;;-145.69;56.05;52404.78;5133707;27;20578;-77
2024/01/15 03:54:50;;;;;;;18.67;7.20;;;;;;;-145.69;56.42;52422.59;5133651;27;20192;-78
2024/01/15 03:57:16;;;;;;;21.67;7.77;;;;;;;-145.69;56.46;52434.47;5133633;27;20220;-77
2024/01/15 03:59:43;;;;;;;21.53;7.73;;;;;;;-145.69;55.96;52390.91;5133856;28;20207;-78
2024/01/15 04:02:10;;;;;;;23.13;7.60;;;;;;;-145.69;56.05;52384.97;5133749;27;20283;-77
2024/01/15 04:04:36;;;;;;;20.40;7.50;;;;;;;-145.69;56.15;52414.69;5133374;27;20580;-77
2024/01/15 04:07:04;;;;;;;20.70;7.73;;;;;;;-145.69;56.45;52392.91;5132701;27;20204;-78
2024/01/15 04:09:31;;;;;;;17.90;7.17;;;;;;;-145.69;56.28;52420.63;5133716;27;20488;-78
2024/01/15 04:11:57;;;;;;;18.10;8.20;;;;;;;-145.69;56.32;52400.81;5133169;27;20232;-79
2024/01/15 04:14:24;;;;;;;19.63;7.03;;;;;;;-145.69;56.42;52386.97;5133564;28;20555;-78
2024/01/15 04:16:50;;;;;;;20.60;7.50;;;;;;;-145.69;56.06;52420.63;5133618;28;20207;-78
2024/01/15 04:19:17;;;;;;;22.37;7.47;;;;;;;-145.69;56.19;52412.69;5133141;27;20551;-78
2024/01/15 04:21:43;;;;;;;23.90;7.93;;;;;;;-145.69;56.47;52392.91;5133537;28;20585;-78
2024/01/15 04:24:11;;;;;;;21.80;7.90;;;;;;;-145.69;56.45;52410.72;5133481;28;20647;-78
2024/01/15 04:26:37;;;;;;;21.87;8.13;;;;;;;-145.69;56.26;52402.78;5133338;27;20655;-78
2024/01/15 04:29:04;;;;;;;21.73;8.17;;;;;;;-145.69;56.44;52400.81;5133975;27;20528;-78
2024/01/15 04:31:30;;;;;;;20.93;7.60;;;;;;;-145.69;56.36;52414.69;5137290;27;20722;-78
2024/01/15 04:33:57;;;;;;;25.77;8.27;;;;;;;-145.69;56.82;52406.75;5137687;27;20261;-78
2024/01/15 04:36:23;;;;;;;21.93;8.13;;;;;;;-145.69;57.15;52428.53;5137210;27;20250;-78
2024/01/15 04:38:50;;;;;;;20.33;7.23;;;;;;;-145.69;56.98;52400.81;5137275;27;20197;-78
2024/01/15 04:41:18;;;;;;;24.43;8.60;;;;;;;-145.69;57.32;52408.75;5137284;27;20197;-78
2024/01/15 04:43:44;;;;;;;27.00;8.33;;;;;;;-145.69;57.37;52408.75;5137227;27;20386;-78
2024/01/15 04:46:11;;;;;;;23.97;8.60;;;;;;;-145.69;57.17;52420.63;5136663;27;20225;-78
2024/01/15 04:48:37;;;;;;;24.23;8.53;;;;;;;-145.69;57.38;52416.66;5137291;27;20201;-78
2024/01/15 04:51:05;;;;;;;26.90;9.30;;;;;;;-145.69;57.36;52400.81;5137119;27;20201;-78
2024/01/15 04:53:32;;;;;;;25.93;9.27;;;;;;;-145.69;57.15;52432.50;5137314;27;20208;-78
2024/01/15 04:55:58;;;;;;;26.00;8.80;;;;;;;-145.69;56.94;52381.00;5136767;27;20196;-78
2024/01/15 04:58:27;;;;;;;26.43;8.70;;;;;;;-145.69;57.17;52402.78;5136635;27;20655;-78
2024/01/15 05:00:54;;;;;;;25.93;9.13;;;;;;;-145.69;56.88;52400.81;5136824;27;20663;-78
2024/01/15 05:03:20;;;;;;;31.90;9.83;;;;;;;-145.69;57.17;52394.88;5136887;27;20200;-78
2024/01/15 05:05:47;;;;;;;29.73;9.40;;;;;;;-145.69;56.97;52440.44;5136701;27;20205;-78
2024/01/15 05:08:13;;;;;;;27.60;9.65;;;;;;;-145.69;57.19;52432.50;5136659;27;20926;-78
2024/01/15 05:10:40;;;;;;;20.57;7.90;;;;;;;-145.69;57.22;52363.19;5136590;27;20204;-78
2024/01/15 05:13:06;;;;;;;26.93;9.50;;;;;;;-145.69;56.99;52420.63;5136531;27;20263;-78
2024/01/15 05:15:34;;;;;;;24.70;8.60;;;;;;;-145.69;57.52;52398.84;5136579;27;20215;-78
2024/01/15 05:18:00;;;;;;;30.90;9.30;;;;;;;-145.69;57.38;52390.91;5136776;27;20536;-78
2024/01/15 05:20:27;;;;;;;29.63;9.27;;;;;;;-145.69;57.24;52412.69;5136578;27;20200;-79
2024/01/15 05:22:53;;;;;;;26.48;10.38;;;;;;;-145.69;57.80;52432.50;5135829;27;20432;-79
2024/01/15 05:25:19;;;;;;;29.60;10.07;;;;;;;-145.69;57.08;52412.69;5136456;27;20226;-78
2024/01/15 05:27:46;;;;;;;23.53;8.67;;;;;;;-145.69;57.30;52381.00;5136338;27;20204;-78
2024/01/15 05:30:13;;;;;;;26.10;9.80;;;;;;;-145.69;57.54;52406.75;5136204;27;20933;-79
2024/01/15 05:32:41;;;;;;;26.67;9.27;;;;;;;-145.69;57.51;52432.50;5136399;27;20721;-77
2024/01/15 05:35:08;;;;;;;25.63;8.43;;;;;;;-145.69;57.34;52410.72;5136159;27;20218;-79
2024/01/15 05:37:34;;;;;;;22.13;8.20;;;;;;;-145.69;57.63;52408.75;5136295;27;20219;-78
2024/01/15 05:40:00;;;;;;;25.50;8.47;;;;;;;-145.69;57.88;52394.88;5134961;27;20226;-79
2024/01/15 05:42:30;;;;;;;23.60;8.47;;;;;;;-145.69;57.80;52412.69;5135540;27;20189;-78
2024/01/15 05:44:56;;;;;;;25.53;8.70;;;;;;;-145.69;57.83;52404.78;5136226;27;20212;-78
2024/01/15 05:47:23;;;;;;;30.40;9.93;;;;;;;-145.69;57.55;52408.75;5135952;27;20229;-78
2024/01/15 05:49:51;;;;;;;24.57;8.97;;;;;;;-145.69;57.97;52392.91;5136083;27;20247;-78
2024/01/15 05:52:17;;;;;;;22.50;7.60;;;;;;;-145.69;57.83;52426.56;5135674;27;20711;-79
2024/01/15 05:54:44;;;;;;;24.23;8.37;;;;;;;-145.69;58.08;52422.59;5135788;27;20197;-77
2024/01/15 05:57:10;;;;;;;23.57;7.90;;;;;;;-145.69;57.85;52392.91;5135275;27;20215;-77
2024/01/15 05:59:37;;;;;;;22.40;7.50;;;;;;;-145.69;57.97;52408.75;5135150;27;20196;-78
2024/01/15 06:02:03;;;;;;;22.23;8.27;;;;;;;-145.69;58.01;52377.06;5135364;27;20204;-77
2024/01/15 06:04:33;;;;;;;26.77;10.50;;;;;;;-145.69;58.24;52424.59;5135326;27;20436;-78
2024/01/15 06:07:01;;;;;;;19.40;8.20;;;;;;;-145.69;57.86;52424.59;5136699;27;20738;-76
2024/01/15 06:09:28;;;;;;;24.17;8.27;;;;;;;-145.69;57.38;52424.59;5136570;27;20612;-77
2024/01/15 06:11:55;;;;;;;21.57;8.10;;;;;;;-145.69;56.97;52390.91;5136800;27;20252;-77
2024/01/15 06:14:21;;;;;;;22.80;7.87;;;;;;;-145.69;57.00;52365.16;5136259;27;20208;-78
2024/01/15 06:16:49;;;;;;;22.00;8.20;;;;;;;-145.69;56.99;52434.47;5136212;27;20208;-78
2024/01/15 06:19:15;;;;;;;22.60;9.00;;;;;;;-145.69;56.47;52412.69;5135994;27;20295;-77
2024/01/15 06:21:45;;;;;;;27.17;8.73;;;;;;;-145.69;56.42;52392.91;5136372;27;20571;-77
2024/01/15 06:24:13;;;;;;;32.37;8.90;;;;;;;-145.69;56.47;52379.03;5135731;27;20196;-77
2024/01/15 06:26:39;;;;;;;31.90;10.77;;;;;;;-145.69;56.34;52428.53;5136414;27;20205;-77
2024/01/15 06:29:09;;;;;;;18.60;6.53;;;;;;;-145.69;56.50;52396.84;5136657;27;20201;-78
2024/01/15 06:31:35;;;;;;;21.83;8.27;;;;;;;-145.69;56.52;52440.44;5136150;27;20229;-77
2024/01/15 06:34:02;;;;;;;21.37;7.00;;;;;;;-145.69;56.86;52402.78;5134786;27;20232;-78
2024/01/15 06:36:28;;;;;;;26.37;8.80;;;;;;;-145.69;56.33;52414.69;5135734;27;20545;-78
2024/01/15 06:38:57;;;;;;;17.40;7.13;;;;;;;-145.69;56.47;52394.88;5136972;27;20200;-77
2024/01/15 06:41:25;;;;;;;19.83;7.73;;;;;;;-145.69;56.08;52390.91;5136387;27;20578;-77
2024/01/15 06:43:52;;;;;;;15.70;6.53;;;;;;;-145.69;56.21;52396.84;5137019;27;20197;-77
2024/01/15 06:46:21;;;;;;;18.97;7.00;;;;;;;-145.69;55.95;52400.81;5135054;27;20220;-77
2024/01/15 06:48:47;;;;;;;15.70;5.73;;;;;;;-145.69;55.27;52381.00;5136052;27;20215;-77
2024/01/15 06:51:14;;;;;;;14.63;4.93;;;;;;;-145.69;54.43;52424.59;5135064;27;20201;-77
2024/01/15 06:53:41;;;;;;;14.13;5.33;;;;;;;-145.69;54.30;52408.75;5135651;27;20220;-79
2024/01/15 06:56:07;;;;;;;9.83;4.23;;;;;;;-145.69;53.22;52371.13;5136132;27;20208;-78
2024/01/15 06:58:35;;;;;;;12.63;4.27;;;;;;;-145.69;52.43;52420.63;5135912;27;20204;-78
2024/01/15 07:01:03;;;;;;;7.43;3.27;;;;;;;-145.69;52.18;52418.63;5134977;27;20289;-76
2024/01/15 07:03:29;;;;;;;9.03;3.20;;;;;;;-145.69;51.50;52396.84;5135523;27;20196;-78
2024/01/15 07:05:56;;;;;;;9.37;4.03;;;;;;;-145.69;51.32;52392.91;5135392;27;20212;-78
2024/01/15 07:08:23;;;;;;;8.30;3.60;;;;;;;-145.69;50.79;52390.91;5136028;27;20236;-78
2024/01/15 07:10:49;;;;;;;8.20;3.30;;;;;;;-145.69;51.23;52377.06;5135888;27;20228;-78
2024/01/15 07:13:16;;;;;;;8.37;3.70;;;;;;;-145.69;51.53;52396.84;5136267;27;20682;-78
2024/01/15 07:15:44;;;;;;;8.53;3.33;;;;;;;-145.69;50.82;52414.69;5135342;27;20189;-78
2024/01/15 07:18:11;;;;;;;8.00;3.13;;;;;;;-145.69;50.33;52377.06;5136078;27;20254;-78
2024/01/15 07:20:37;;;;;;;9.73;3.60;;;;;;;-145.69;50.34;52414.69;5135771;27;20216;-78
2024/01/15 07:23:05;;;;;;;9.23;2.90;;;;;;;-145.69;50.04;52402.78;5135956;27;20203;-77
2024/01/15 07:25:31;;;;;;;11.40;3.10;;;;;;;-145.69;49.39;52371.13;5135760;27;20532;-78
2024/01/15 07:27:57;;;;;;;6.10;2.87;;;;;;;-145.69;49.96;52404.78;5134370;27;20205;-77
2024/01/15 07:30:24;;;;;;;6.77;2.90;;;;;;;-145.69;49.36;52396.84;5133770;27;20196;-78
2024/01/15 07:32:52;;;;;;;5.97;2.30;;;;;;;-145.69;49.20;52392.91;5133829;27;20578;-78
2024/01/15 07:35:19;;;;;;;5.90;3.10;;;;;;;-145.69;49.85;52416.66;5133716;27;20199;-79
2024/01/15 07:37:46;;;;;;;6.80;3.03;;;;;;;-145.69;49.35;52414.69;5133852;27;20201;-78
2024/01/15 07:40:12;;;;;;;9.20;2.73;;;;;;;-145.69;48.80;52396.84;5134044;27;20207;-79
2024/01/15 07:42:39;;;;;;;6.23;2.03;;;;;;;-145.69;48.40;52412.69;5133537;27;20200;-78
2024/01/15 07:45:06;;;;;;;9.40;2.47;;;;;;;-145.69;48.40;52390.91;5133484;27;20207;-77
2024/01/15 07:47:32;;;;;;;3.90;2.23;;;;;;;-145.69;47.88;52357.25;5133555;27;20240;-78
2024/01/15 07:50:00;;;;;;;5.37;2.23;;;;;;;-145.69;47.58;52400.81;5134915;27;20224;-77
2024/01/15 07:52:27;;;;;;;6.30;2.60;;;;;;;-145.69;47.77;52414.69;5133586;28;20273;-79
2024/01/15 07:54:53;;;;;;;6.23;2.33;;;;;;;-145.69;47.32;52408.75;5133502;28;20265;-78
2024/01/15 07:57:19;;;;;;;4.73;2.00;;;;;;;-145.69;47.26;52404.78;5133593;27;20204;-78
2024/01/15 07:59:46;;;;;;;6.30;2.63;;;;;;;-145.69;47.44;52400.81;5133695;27;20237;-78
2024/01/15 08:02:12;;;;;;;5.73;2.20;;;;;;;-145.69;46.59;52392.91;5133128;27;20193;-79
2024/01/15 08:04:39;;;;;;;4.87;2.10;;;;;;;-145.69;46.42;52379.03;5137117;27;20196;-79
2024/01/15 08:07:07;;;;;;;3.30;2.20;;;;;;;-145.69;46.03;52373.09;5137527;27;20283;-78
2024/01/15 08:09:34;;;;;;;6.00;2.07;;;;;;;-145.69;46.52;52383.00;5137719;27;20296;-78
2024/01/15 08:12:00;;;;;;;4.27;2.10;;;;;;;-145.69;46.53;52392.91;5137737;27;20605;-79
2024/01/15 08:14:27;;;;;;;3.50;2.07;;;;;;;-145.69;45.87;52392.91;5137853;27;20228;-80
2024/01/15 08:16:53;;;;;;;5.60;2.17;;;;;;;-145.69;45.72;52394.88;5137402;27;20589;-78
2024/01/15 08:19:20;;;;;;;2.53;1.77;;;;;;;-145.69;45.87;52377.06;5137859;27;20197;-78
2024/01/15 08:21:47;;;;;;;3.27;2.20;;;;;;;-145.69;46.10;52383.00;5138015;27;20236;-78
2024/01/15 08:24:16;;;;;;;8.30;2.50;;;;;;;-145.69;45.68;52404.78;5137729;27;20197;-78
2024/01/15 08:26:43;;;;;;;6.13;2.93;;;;;;;-145.69;45.74;52381.00;5136100;27;20204;-79
2024/01/15 08:29:09;;;;;;;6.27;2.37;;;;;;;-145.69;45.57;52357.25;5137387;27;20197;-80
2024/01/15 08:31:36;;;;;;;3.33;2.07;;;;;;;-145.69;45.83;52369.13;5137306;27;20588;-79
2024/01/15 08:34:02;;;;;;;2.53;1.60;;;;;;;-145.69;45.67;52381.00;5137482;27;20225;-80
2024/01/15 08:36:29;;;;;;;3.67;1.47;;;;;;;-145.69;45.40;52345.38;5136809;27;20197;-77
2024/01/15 08:38:56;;;;;;;3.93;1.70;;;;;;;-145.69;45.33;52375.06;5137124;27;20193;-77
2024/01/15 08:41:24;;;;;;;4.93;1.80;;;;;;;-145.69;44.48;52357.25;5137306;27;20288;-77
2024/01/15 08:43:51;;;;;;;5.90;1.70;;;;;;;-145.69;44.09;52377.06;5137038;27;20259;-78
2024/01/15 08:46:17;;;;;;;2.40;1.37;;;;;;;-145.69;43.70;52369.13;5137171;27;20763;-78
2024/01/15 08:48:44;;;;;;;2.43;1.50;;;;;;;-145.69;43.89;52359.22;5137186;27;20203;-78
2024/01/15 08:51:10;;;;;;;2.63;1.43;;;;;;;-145.69;43.41;52367.16;5137248;27;20659;-77
2024/01/15 08:53:36;;;;;;;5.13;1.40;;;;;;;-145.69;43.65;52375.06;5136839;27;20281;-78
2024/01/15 08:56:03;;;;;;;3.17;1.30;;;;;;;-145.69;43.56;52384.97;5137022;27;20204;-78
2024/01/15 08:58:31;;;;;;;2.07;1.47;;;;;;;-145.69;43.02;52347.34;5137346;27;20288;-78
2024/01/15 09:00:57;;;;;;;3.63;1.70;;;;;;;-145.69;43.44;52361.22;5136999;27;20203;-78
2024/01/15 09:03:25;;;;;;;7.03;1.70;;;;;;;-145.69;43.25;52396.84;5136645;27;20197;-79
2024/01/15 09:05:51;;;;;;;3.50;1.90;;;;;;;-145.69;43.74;52365.16;5137061;27;20224;-78
2024/01/15 09:08:18;;;;;;;1.73;1.40;;;;;;;-145.69;42.77;52381.00;5136583;27;20204;-78
2024/01/15 09:10:45;;;;;;;4.10;1.47;;;;;;;-145.69;43.62;52365.16;5136432;27;20610;-79
2024/01/15 09:13:12;;;;;;;2.57;1.47;;;;;;;-145.69;43.60;52363.19;5136582;27;20221;-79
2024/01/15 09:15:40;;;;;;;4.67;2.20;;;;;;;-145.69;44.17;52379.03;5135943;27;20224;-78
2024/01/15 09:18:06;;;;;;;2.10;1.53;;;;;;;-145.69;43.81;52375.06;5136725;27;20203;-79
2024/01/15 09:20:33;;;;;;;2.97;1.67;;;;;;;-145.69;43.97;52361.22;5136421;27;20197;-78
2024/01/15 09:22:59;;;;;;;4.30;1.83;;;;;;;-145.69;44.12;52347.34;5136446;27;20197;-79
2024/01/15 09:25:26;;;;;;;3.57;2.23;;;;;;;-145.69;43.74;52394.88;5136513;27;20200;-78
2024/01/15 09:27:53;;;;;;;4.23;1.73;;;;;;;-145.69;44.09;52369.13;5136690;27;20204;-79
2024/01/15 09:30:19;;;;;;;4.53;1.50;;;;;;;-145.69;43.74;52339.44;5136353;27;20193;-79
2024/01/15 09:32:47;;;;;;;2.70;1.77;;;;;;;-145.69;43.95;52396.84;5136297;27;20201;-79
2024/01/15 09:35:13;;;;;;;1.97;1.40;;;;;;;-145.69;44.10;52365.16;5136442;27;20259;-78
2024/01/15 09:37:40;;;;;;;4.67;2.23;;;;;;;-145.69;44.40;52373.09;5136206;27;20204;-79
2024/01/15 09:40:08;;;;;;;3.00;1.70;;;;;;;-145.69;43.74;52361.22;5135912;27;20204;-82
2024/01/15 09:42:36;;;;;;;4.67;2.10;;;;;;;-145.69;43.80;52339.44;5135885;27;20203;-81
2024/01/15 09:45:03;;;;;;;3.57;2.00;;;;;;;-145.69;43.40;52337.44;5136353;27;20200;-80
2024/01/15 09:47:30;;;;;;;5.67;2.17;;;;;;;-145.69;43.42;52317.66;5135614;27;20281;-80
2024/01/15 09:49:58;;;;;;;4.60;1.77;;;;;;;-145.69;42.87;52375.06;5135690;27;20193;-80
2024/01/15 09:52:26;;;;;;;4.73;1.97;;;;;;;-145.69;43.02;52345.38;5133681;27;20277;-82
2024/01/15 09:54:53;;;;;;;4.97;1.93;;;;;;;-145.69;42.31;52388.94;5135891;27;20285;-81
2024/01/15 09:57:19;;;;;;;6.63;2.20;;;;;;;-145.69;42.82;52390.91;5135686;27;20200;-81
2024/01/15 09:59:48;;;;;;;3.57;1.73;;;;;;;-145.69;42.36;52365.16;5135848;27;20207;-80
2024/01/15 10:02:18;;;;;;;3.50;1.90;;;;;;;-145.69;42.74;52301.81;5135751;27;20193;-81
2024/01/15 10:04:47;;;;;;;2.77;1.83;;;;;;;-145.69;43.03;52339.44;5135628;27;20208;-81
2024/01/15 10:07:18;;;;;;;5.80;2.47;;;;;;;-145.69;42.42;52345.38;5134805;27;20254;-80
2024/01/15 10:09:45;;;;;;;4.00;2.10;;;;;;;-145.69;42.78;52359.22;5133336;27;20220;-76
2024/01/15 10:12:12;;;;;;;4.70;2.33;;;;;;;-145.69;42.18;52341.41;5135219;27;20203;-77
2024/01/15 10:14:39;;;;;;;6.30;2.20;;;;;;;-145.69;42.34;52343.38;5135045;27;20231;-80
2024/01/15 10:17:14;;;;;;;5.47;2.40;;;;;;;-145.69;42.11;52335.47;5135699;27;20258;-78
2024/01/15 10:19:42;;;;;;;6.57;2.33;;;;;;;-145.69;42.13;52349.31;5135424;27;20200;-80
2024/01/15 10:22:09;;;;;;;3.27;1.70;;;;;;;-145.69;42.22;52349.31;5135546;27;20235;-81
2024/01/15 10:24:37;;;;;;;3.30;1.63;;;;;;;-145.69;42.05;52345.38;5135118;27;20212;-81
2024/01/15 10:27:11;;;;;;;17.07;5.37;;;;;;;-145.69;41.64;52335.47;5134209;27;20659;-81
2024/01/15 10:29:38;;;;;;;3.40;1.80;;;;;;;-145.69;41.24;52317.66;5123475;27;20250;-80
2024/01/15 10:32:08;;;;;;;4.47;2.07;;;;;;;-145.69;41.75;52369.13;5123251;27;20200;-79
2024/01/15 10:34:38;;;;;;;3.37;2.00;;;;;;;-145.69;41.06;52361.22;5134703;27;20273;-80
2024/01/15 10:37:05;;;;;;;3.67;2.00;;;;;;;-145.69;41.51;52357.25;5135131;27;21098;-80
2024/01/15 10:39:34;;;;;;;3.43;1.53;;;;;;;-145.69;40.92;52349.31;5134807;27;20189;-81
2024/01/15 10:42:01;;;;;;;3.87;1.90;;;;;;;-145.69;40.74;52315.66;5134440;27;20242;-81
2024/01/15 10:44:28;;;;;;;3.43;2.07;;;;;;;-145.69;41.41;52329.53;5134640;27;20207;-80
2024/01/15 10:46:57;;;;;;;4.43;1.70;;;;;;;-145.69;40.75;52357.25;5134719;27;20253;-80
2024/01/15 10:49:25;;;;;;;2.90;1.60;;;;;;;-145.69;41.20;52333.47;5135308;27;20532;-80
2024/01/15 10:51:53;;;;;;;3.20;1.50;;;;;;;-145.69;41.25;52349.31;5135081;27;20196;-80
2024/01/15 10:54:20;;;;;;;1.47;1.30;;;;;;;-145.69;41.18;52337.44;5134546;27;20306;-80
2024/01/15 10:56:48;;;;;;;3.73;1.60;;;;;;;-145.69;40.71;52373.09;5134705;27;20597;-79
2024/01/15 10:59:17;;;;;;;3.87;1.63;;;;;;;-145.69;41.06;52331.50;5134398;27;20204;-81
2024/01/15 11:01:44;;;;;;;3.77;1.73;;;;;;;-145.69;40.75;52381.00;5134225;27;20197;-78
2024/01/15 11:04:10;;;;;;;4.50;1.63;;;;;;;-145.69;41.10;52375.06;5131391;27;20208;-79
2024/01/15 11:06:46;;;;;;;4.10;2.20;;;;;;;-145.69;41.13;52329.53;5134534;27;20193;-77
2024/01/15 11:09:13;;;;;;;3.67;1.60;;;;;;;-145.69;40.65;52297.84;5133175;27;20211;-80
2024/01/15 11:11:43;;;;;;;3.60;1.27;;;;;;;-145.69;40.75;52333.47;5133510;27;20226;-78